sensor_id;sensor_type;location;lat;lon;timestamp;temperature;humidity
21261;DHT22;10788;47.930;9.766;2024-01-15T00:02:10;-0.60;99.90
21261;DHT22;10788;47.930;9.766;2024-01-15T00:04:42;-0.70;99.90
21261;DHT22;10788;47.930;9.766;2024-01-15T00:07:08;-0.70;99.90
21261;DHT22;10788;47.930;9.766;2024-01-15T00:09:34;-0.70;99.90
21261;DHT22;10788;47.930;9.766;2024-01-15T00:12:01;-0.80;99.90
21261;DHT22;10788;47.930;9.766;2024-01-15T00:14:27;-0.80;99.90
21261;DHT22;10788;47.930;9.766;2024-01-15T00:16:53;-0.80;99.90
21261;DHT22;10788;47.930;9.766;2024-01-15T00:19:21;-0.80;99.90
21261;DHT22;10788;47.930;9.766;2024-01-15T00:21:47;-0.90;99.90
21261;DHT22;10788;47.930;9.766;2024-01-15T00:24:13;-0.90;99.90
21261;DHT22;10788;47.930;9.766;2024-01-15T00:26:39;-0.90;99.90
21261;DHT22;10788;47.930;9.766;2024-01-15T00:29:06;-0.90;99.90
21261;DHT22;10788;47.930;9.766;2024-01-15T00:31:32;-1.00;99.90
21261;DHT22;10788;47.930;9.766;2024-01-15T00:33:57;-1.00;99.90
21261;DHT22;10788;47.930;9.766;2024-01-15T00:36:23;-1.00;99.90
21261;DHT22;10788;47.930;9.766;2024-01-15T00:38:49;-1.10;99.90
21261;DHT22;10788;47.930;9.766;2024-01-15T00:41:15;-1.10;99.90
21261;DHT22;10788;47.930;9.766;2024-01-15T00:43:40;-1.10;99.90
21261;DHT22;10788;47.930;9.766;2024-01-15T00:46:06;-1.10;99.90
21261;DHT22;10788;47.930;9.766;2024-01-15T00:48:32;-1.20;99.90
21261;DHT22;10788;47.930;9.766;2024-01-15T00:50:58;-1.20;99.90
21261;DHT22;10788;47.930;9.766;2024-01-15T00:53:25;-1.20;99.90
21261;DHT22;10788;47.930;9.766;2024-01-15T00:55:51;-1.20;99.90
21261;DHT22;10788;47.930;9.766;2024-01-15T00:58:17;-1.30;99.90
21261;DHT22;10788;47.930;9.766;2024-01-15T01:00:42;-1.40;99.90
21261;DHT22;10788;47.930;9.766;2024-01-15T01:03:08;-1.50;99.90
21261;DHT22;10788;47.930;9.766;2024-01-15T01:05:34;-1.50;99.90
21261;DHT22;10788;47.930;9.766;2024-01-15T01:08:00;-1.50;99.90
21261;DHT22;10788;47.930;9.766;2024-01-15T01:10:27;-1.50;99.90
21261;DHT22;10788;47.930;9.766;2024-01-15T01:12:52;-1.50;99.90
21261;DHT22;10788;47.930;9.766;2024-01-15T01:15:18;-1.50;99.90
21261;DHT22;10788;47.930;9.766;2024-01-15T01:17:44;-1.50;99.90
21261;DHT22;10788;47.930;9.766;2024-01-15T01:20:09;-1.50;99.90
21261;DHT22;10788;47.930;9.766;2024-01-15T01:22:36;-1.60;99.90
21261;DHT22;10788;47.930;9.766;2024-01-15T01:25:02;-1.70;99.90
21261;DHT22;10788;47.930;9.766;2024-01-15T01:27:28;-1.70;99.90
21261;DHT22;10788;47.930;9.766;2024-01-15T01:29:54;-1.70;99.90
21261;DHT22;10788;47.930;9.766;2024-01-15T01:32:20;-1.70;99.90
21261;DHT22;10788;47.930;9.766;2024-01-15T01:34:46;-1.80;99.90
21261;DHT22;10788;47.930;9.766;2024-01-15T01:37:12;-1.80;99.90
21261;DHT22;10788;47.930;9.766;2024-01-15T01:39:43;-1.90;99.90
21261;DHT22;10788;47.930;9.766;2024-01-15T01:42:09;-1.90;99.90
21261;DHT22;10788;47.930;9.766;2024-01-15T01:44:35;-1.90;99.90
21261;DHT22;10788;47.930;9.766;2024-01-15T01:47:01;-1.90;99.90
21261;DHT22;10788;47.930;9.766;2024-01-15T01:49:28;-1.90;99.90
21261;DHT22;10788;47.930;9.766;2024-01-15T01:51:57;-1.90;99.90
21261;DHT22;10788;47.930;9.766;2024-01-15T01:54:24;-2.00;99.90
21261;DHT22;10788;47.930;9.766;2024-01-15T01:56:51;-1.90;99.90
21261;DHT22;10788;47.930;9.766;2024-01-15T01:59:17;-1.90;99.90
21261;DHT22;10788;47.930;9.766;2024-01-15T02:01:44;-2.00;99.90
21261;DHT22;10788;47.930;9.766;2024-01-15T02:04:11;-2.00;99.90
21261;DHT22;10788;47.930;9.766;2024-01-15T02:06:37;-2.00;99.90
21261;DHT22;10788;47.930;9.766;2024-01-15T02:09:03;-2.00;99.90
21261;DHT22;10788;47.930;9.766;2024-01-15T02:11:31;-2.00;99.90
21261;DHT22;10788;47.930;9.766;2024-01-15T02:13:56;-2.00;99.90
21261;DHT22;10788;47.930;9.766;2024-01-15T02:16:22;-2.00;99.90
21261;DHT22;10788;47.930;9.766;2024-01-15T02:18:48;-2.10;99.90
21261;DHT22;10788;47.930;9.766;2024-01-15T02:21:13;-2.10;99.90
21261;DHT22;10788;47.930;9.766;2024-01-15T02:23:39;-2.00;99.90
21261;DHT22;10788;47.930;9.766;2024-01-15T02:26:05;-2.10;99.90
21261;DHT22;10788;47.930;9.766;2024-01-15T02:28:32;-2.10;99.90
21261;DHT22;10788;47.930;9.766;2024-01-15T02:30:58;-2.20;99.90
21261;DHT22;10788;47.930;9.766;2024-01-15T02:33:24;-2.20;99.90
21261;DHT22;10788;47.930;9.766;2024-01-15T02:35:49;-2.20;99.90
21261;DHT22;10788;47.930;9.766;2024-01-15T02:38:15;-2.20;99.90
21261;DHT22;10788;47.930;9.766;2024-01-15T02:40:43;-2.20;99.90
21261;DHT22;10788;47.930;9.766;2024-01-15T02:43:08;-2.20;99.90
21261;DHT22;10788;47.930;9.766;2024-01-15T02:45:34;-2.20;99.90
21261;DHT22;10788;47.930;9.766;2024-01-15T02:48:00;-2.20;99.90
21261;DHT22;10788;47.930;9.766;2024-01-15T02:50:26;-2.20;99.90
21261;DHT22;10788;47.930;9.766;2024-01-15T02:52:52;-2.20;99.90
21261;DHT22;10788;47.930;9.766;2024-01-15T02:55:17;-2.30;99.90
21261;DHT22;10788;47.930;9.766;2024-01-15T02:57:43;-2.20;99.90
21261;DHT22;10788;47.930;9.766;2024-01-15T03:00:09;-2.20;99.90
21261;DHT22;10788;47.930;9.766;2024-01-15T03:02:37;-2.20;99.90
21261;DHT22;10788;47.930;9.766;2024-01-15T03:05:09;-2.20;99.90
21261;DHT22;10788;47.930;9.766;2024-01-15T03:07:35;-2.20;99.90
21261;DHT22;10788;47.930;9.766;2024-01-15T03:10:02;-2.20;99.90
21261;DHT22;10788;47.930;9.766;2024-01-15T03:12:27;-2.20;99.90
21261;DHT22;10788;47.930;9.766;2024-01-15T03:14:53;-2.20;99.90
21261;DHT22;10788;47.930;9.766;2024-01-15T03:17:19;-2.20;99.90
21261;DHT22;10788;47.930;9.766;2024-01-15T03:19:45;-2.20;99.90
21261;DHT22;10788;47.930;9.766;2024-01-15T03:22:10;-2.30;99.90
21261;DHT22;10788;47.930;9.766;2024-01-15T03:24:36;-2.30;99.90
21261;DHT22;10788;47.930;9.766;2024-01-15T03:27:02;-2.30;99.90
21261;DHT22;10788;47.930;9.766;2024-01-15T03:29:28;-2.30;99.90
21261;DHT22;10788;47.930;9.766;2024-01-15T03:31:54;-2.40;99.90
21261;DHT22;10788;47.930;9.766;2024-01-15T03:34:19;-2.40;99.90
21261;DHT22;10788;47.930;9.766;2024-01-15T03:36:45;-2.40;99.90
21261;DHT22;10788;47.930;9.766;2024-01-15T03:39:11;-2.40;99.90
21261;DHT22;10788;47.930;9.766;2024-01-15T03:41:37;-2.50;99.90
21261;DHT22;10788;47.930;9.766;2024-01-15T03:44:02;-2.50;99.90
21261;DHT22;10788;47.930;9.766;2024-01-15T03:46:28;-2.50;99.90
21261;DHT22;10788;47.930;9.766;2024-01-15T03:48:54;-2.50;99.90
21261;DHT22;10788;47.930;9.766;2024-01-15T03:51:20;-2.40;99.90
21261;DHT22;10788;47.930;9.766;2024-01-15T03:53:46;-2.40;99.90
21261;DHT22;10788;47.930;9.766;2024-01-15T03:56:11;-2.40;99.90
21261;DHT22;10788;47.930;9.766;2024-01-15T03:58:37;-2.50;99.90
21261;DHT22;10788;47.930;9.766;2024-01-15T04:01:03;-2.40;99.90
21261;DHT22;10788;47.930;9.766;2024-01-15T04:03:28;-2.30;99.90
21261;DHT22;10788;47.930;9.766;2024-01-15T04:05:54;-2.30;99.90
21261;DHT22;10788;47.930;9.766;2024-01-15T04:08:20;-2.20;99.90
21261;DHT22;10788;47.930;9.766;2024-01-15T04:10:46;-2.20;99.90
21261;DHT22;10788;47.930;9.766;2024-01-15T04:13:11;-2.20;99.90
21261;DHT22;10788;47.930;9.766;2024-01-15T04:15:37;-2.20;99.90
21261;DHT22;10788;47.930;9.766;2024-01-15T04:18:03;-2.20;99.90
21261;DHT22;10788;47.930;9.766;2024-01-15T04:20:29;-2.20;99.90
21261;DHT22;10788;47.930;9.766;2024-01-15T04:22:55;-2.10;99.90
21261;DHT22;10788;47.930;9.766;2024-01-15T04:25:20;-2.00;99.90
21261;DHT22;10788;47.930;9.766;2024-01-15T04:27:46;-2.10;99.90
21261;DHT22;10788;47.930;9.766;2024-01-15T04:30:12;-2.00;99.90
21261;DHT22;10788;47.930;9.766;2024-01-15T04:32:38;-1.90;99.90
21261;DHT22;10788;47.930;9.766;2024-01-15T04:35:04;-1.90;99.90
21261;DHT22;10788;47.930;9.766;2024-01-15T04:37:29;-2.00;99.90
21261;DHT22;10788;47.930;9.766;2024-01-15T04:39:55;-2.00;99.90
21261;DHT22;10788;47.930;9.766;2024-01-15T04:42:22;-2.00;99.90
21261;DHT22;10788;47.930;9.766;2024-01-15T04:44:48;-1.90;99.90
21261;DHT22;10788;47.930;9.766;2024-01-15T04:47:14;-1.80;99.90
21261;DHT22;10788;47.930;9.766;2024-01-15T04:49:40;-1.80;99.90
21261;DHT22;10788;47.930;9.766;2024-01-15T04:52:05;-1.80;99.90
21261;DHT22;10788;47.930;9.766;2024-01-15T04:54:31;-1.90;99.90
21261;DHT22;10788;47.930;9.766;2024-01-15T04:56:57;-1.90;99.90
21261;DHT22;10788;47.930;9.766;2024-01-15T04:59:23;-1.90;99.90
21261;DHT22;10788;47.930;9.766;2024-01-15T05:01:48;-1.90;99.90
21261;DHT22;10788;47.930;9.766;2024-01-15T05:04:15;-1.90;99.90
21261;DHT22;10788;47.930;9.766;2024-01-15T05:06:40;-1.90;99.90
21261;DHT22;10788;47.930;9.766;2024-01-15T05:09:06;-1.90;99.90
21261;DHT22;10788;47.930;9.766;2024-01-15T05:11:32;-1.80;99.90
21261;DHT22;10788;47.930;9.766;2024-01-15T05:13:58;-1.70;99.90
21261;DHT22;10788;47.930;9.766;2024-01-15T05:16:23;-1.70;99.90
21261;DHT22;10788;47.930;9.766;2024-01-15T05:18:49;-1.70;99.90
21261;DHT22;10788;47.930;9.766;2024-01-15T05:21:15;-1.70;99.90
21261;DHT22;10788;47.930;9.766;2024-01-15T05:23:41;-1.70;99.90
21261;DHT22;10788;47.930;9.766;2024-01-15T05:26:06;-1.70;99.90
21261;DHT22;10788;47.930;9.766;2024-01-15T05:28:34;-1.70;99.90
21261;DHT22;10788;47.930;9.766;2024-01-15T05:31:00;-1.70;99.90
21261;DHT22;10788;47.930;9.766;2024-01-15T05:33:25;-1.80;99.90
21261;DHT22;10788;47.930;9.766;2024-01-15T05:35:51;-1.80;99.90
21261;DHT22;10788;47.930;9.766;2024-01-15T05:38:17;-1.80;99.90
21261;DHT22;10788;47.930;9.766;2024-01-15T05:40:43;-1.80;99.90
21261;DHT22;10788;47.930;9.766;2024-01-15T05:43:08;-1.70;99.90
21261;DHT22;10788;47.930;9.766;2024-01-15T05:45:35;-1.70;99.90
21261;DHT22;10788;47.930;9.766;2024-01-15T05:48:01;-1.60;99.90
21261;DHT22;10788;47.930;9.766;2024-01-15T05:50:27;-1.60;99.90
21261;DHT22;10788;47.930;9.766;2024-01-15T05:52:52;-1.70;99.90
21261;DHT22;10788;47.930;9.766;2024-01-15T05:55:18;-1.60;99.90
21261;DHT22;10788;47.930;9.766;2024-01-15T05:57:44;-1.60;99.90
21261;DHT22;10788;47.930;9.766;2024-01-15T06:00:11;-1.60;99.90
21261;DHT22;10788;47.930;9.766;2024-01-15T06:02:40;-1.60;99.90
21261;DHT22;10788;47.930;9.766;2024-01-15T06:05:06;-1.60;99.90
21261;DHT22;10788;47.930;9.766;2024-01-15T06:07:34;-1.60;99.90
21261;DHT22;10788;47.930;9.766;2024-01-15T06:10:00;-1.70;99.90
21261;DHT22;10788;47.930;9.766;2024-01-15T06:12:26;-1.60;99.90
21261;DHT22;10788;47.930;9.766;2024-01-15T06:14:53;-1.70;99.90
21261;DHT22;10788;47.930;9.766;2024-01-15T06:17:18;-1.70;99.90
21261;DHT22;10788;47.930;9.766;2024-01-15T06:19:44;-1.70;99.90
21261;DHT22;10788;47.930;9.766;2024-01-15T06:22:10;-1.70;99.90
21261;DHT22;10788;47.930;9.766;2024-01-15T06:24:35;-1.70;99.90
21261;DHT22;10788;47.930;9.766;2024-01-15T06:27:01;-1.70;99.90
21261;DHT22;10788;47.930;9.766;2024-01-15T06:29:28;-1.80;99.90
21261;DHT22;10788;47.930;9.766;2024-01-15T06:31:53;-1.80;99.90
21261;DHT22;10788;47.930;9.766;2024-01-15T06:34:19;-1.80;99.90
21261;DHT22;10788;47.930;9.766;2024-01-15T06:36:45;-1.80;99.90
21261;DHT22;10788;47.930;9.766;2024-01-15T06:39:10;-1.80;99.90
21261;DHT22;10788;47.930;9.766;2024-01-15T06:41:36;-1.70;99.90
21261;DHT22;10788;47.930;9.766;2024-01-15T06:44:12;-1.70;99.90
21261;DHT22;10788;47.930;9.766;2024-01-15T06:46:45;-1.60;99.90
21261;DHT22;10788;47.930;9.766;2024-01-15T06:49:11;-1.60;99.90
21261;DHT22;10788;47.930;9.766;2024-01-15T06:51:37;-1.60;99.90
21261;DHT22;10788;47.930;9.766;2024-01-15T06:54:03;-1.70;99.90
21261;DHT22;10788;47.930;9.766;2024-01-15T06:56:28;-1.70;99.90
21261;DHT22;10788;47.930;9.766;2024-01-15T06:58:54;-1.70;99.90
21261;DHT22;10788;47.930;9.766;2024-01-15T07:01:20;-1.70;99.90
21261;DHT22;10788;47.930;9.766;2024-01-15T07:03:46;-1.70;99.90
21261;DHT22;10788;47.930;9.766;2024-01-15T07:06:12;-1.70;99.90
21261;DHT22;10788;47.930;9.766;2024-01-15T07:08:39;-1.70;99.90
21261;DHT22;10788;47.930;9.766;2024-01-15T07:11:05;-1.60;99.90
21261;DHT22;10788;47.930;9.766;2024-01-15T07:13:31;-1.60;99.90
21261;DHT22;10788;47.930;9.766;2024-01-15T07:15:57;-1.50;99.90
21261;DHT22;10788;47.930;9.766;2024-01-15T07:18:23;-1.60;99.90
21261;DHT22;10788;47.930;9.766;2024-01-15T07:20:49;-1.50;99.90
21261;DHT22;10788;47.930;9.766;2024-01-15T07:23:14;-1.50;99.90
21261;DHT22;10788;47.930;9.766;2024-01-15T07:25:40;-1.50;99.90
21261;DHT22;10788;47.930;9.766;2024-01-15T07:28:06;-1.50;99.90
21261;DHT22;10788;47.930;9.766;2024-01-15T07:30:32;-1.50;99.90
21261;DHT22;10788;47.930;9.766;2024-01-15T07:32:57;-1.50;99.90
21261;DHT22;10788;47.930;9.766;2024-01-15T07:35:23;-1.50;99.90
21261;DHT22;10788;47.930;9.766;2024-01-15T07:37:49;-1.50;99.90
21261;DHT22;10788;47.930;9.766;2024-01-15T07:40:14;-1.50;99.90
21261;DHT22;10788;47.930;9.766;2024-01-15T07:42:40;-1.60;99.90
21261;DHT22;10788;47.930;9.766;2024-01-15T07:45:08;-1.50;99.90
21261;DHT22;10788;47.930;9.766;2024-01-15T07:47:34;-1.60;99.90
21261;DHT22;10788;47.930;9.766;2024-01-15T07:50:00;-1.50;99.90
21261;DHT22;10788;47.930;9.766;2024-01-15T07:52:25;-1.50;99.90
21261;DHT22;10788;47.930;9.766;2024-01-15T07:54:51;-1.40;99.90
21261;DHT22;10788;47.930;9.766;2024-01-15T07:57:17;-1.40;99.90
21261;DHT22;10788;47.930;9.766;2024-01-15T07:59:42;-1.40;99.90
21261;DHT22;10788;47.930;9.766;2024-01-15T08:02:08;-1.40;99.90
21261;DHT22;10788;47.930;9.766;2024-01-15T08:04:33;-1.40;99.90
21261;DHT22;10788;47.930;9.766;2024-01-15T08:06:59;-1.40;99.90
21261;DHT22;10788;47.930;9.766;2024-01-15T08:09:25;-1.40;99.90
21261;DHT22;10788;47.930;9.766;2024-01-15T08:11:50;-1.40;99.90
21261;DHT22;10788;47.930;9.766;2024-01-15T08:14:17;-1.40;99.90
21261;DHT22;10788;47.930;9.766;2024-01-15T08:16:43;-1.30;99.90
21261;DHT22;10788;47.930;9.766;2024-01-15T08:19:09;-1.30;99.90
21261;DHT22;10788;47.930;9.766;2024-01-15T08:21:34;-1.30;99.90
21261;DHT22;10788;47.930;9.766;2024-01-15T08:24:01;-1.30;99.90
21261;DHT22;10788;47.930;9.766;2024-01-15T08:26:28;-1.30;99.90
21261;DHT22;10788;47.930;9.766;2024-01-15T08:28:54;-1.30;99.90
21261;DHT22;10788;47.930;9.766;2024-01-15T08:31:19;-1.30;99.90
21261;DHT22;10788;47.930;9.766;2024-01-15T08:33:45;-1.30;99.90
21261;DHT22;10788;47.930;9.766;2024-01-15T08:36:11;-1.20;99.90
21261;DHT22;10788;47.930;9.766;2024-01-15T08:38:37;-1.20;99.90
21261;DHT22;10788;47.930;9.766;2024-01-15T08:41:03;-1.20;99.90
21261;DHT22;10788;47.930;9.766;2024-01-15T08:43:28;-1.20;99.90
21261;DHT22;10788;47.930;9.766;2024-01-15T08:45:55;-1.20;99.90
21261;DHT22;10788;47.930;9.766;2024-01-15T08:48:20;-1.20;99.90
21261;DHT22;10788;47.930;9.766;2024-01-15T08:50:46;-1.20;99.90
21261;DHT22;10788;47.930;9.766;2024-01-15T08:53:12;-1.30;99.90
21261;DHT22;10788;47.930;9.766;2024-01-15T08:55:38;-1.20;99.90
21261;DHT22;10788;47.930;9.766;2024-01-15T08:58:04;-1.20;99.90
21261;DHT22;10788;47.930;9.766;2024-01-15T09:00:30;-1.20;99.90
21261;DHT22;10788;47.930;9.766;2024-01-15T09:02:56;-1.20;99.90
21261;DHT22;10788;47.930;9.766;2024-01-15T09:05:22;-1.20;99.90
21261;DHT22;10788;47.930;9.766;2024-01-15T09:07:48;-1.20;99.90
21261;DHT22;10788;47.930;9.766;2024-01-15T09:10:14;-1.20;99.90
21261;DHT22;10788;47.930;9.766;2024-01-15T09:12:39;-1.20;99.90
21261;DHT22;10788;47.930;9.766;2024-01-15T09:15:05;-1.20;99.90
21261;DHT22;10788;47.930;9.766;2024-01-15T09:17:34;-1.20;99.90
21261;DHT22;10788;47.930;9.766;2024-01-15T09:20:00;-1.10;99.90
21261;DHT22;10788;47.930;9.766;2024-01-15T09:22:26;-1.10;99.90
21261;DHT22;10788;47.930;9.766;2024-01-15T09:24:52;-1.10;99.90
21261;DHT22;10788;47.930;9.766;2024-01-15T09:27:18;-1.10;99.90
21261;DHT22;10788;47.930;9.766;2024-01-15T09:29:44;-1.10;99.90
21261;DHT22;10788;47.930;9.766;2024-01-15T09:32:11;-1.10;99.90
21261;DHT22;10788;47.930;9.766;2024-01-15T09:34:38;-1.10;99.90
21261;DHT22;10788;47.930;9.766;2024-01-15T09:37:04;-0.90;99.90
21261;DHT22;10788;47.930;9.766;2024-01-15T09:39:29;-0.90;99.90
21261;DHT22;10788;47.930;9.766;2024-01-15T09:41:56;-0.90;99.90
21261;DHT22;10788;47.930;9.766;2024-01-15T09:44:23;-0.90;99.90
21261;DHT22;10788;47.930;9.766;2024-01-15T09:46:49;-0.90;99.90
21261;DHT22;10788;47.930;9.766;2024-01-15T09:49:17;-0.90;99.90
21261;DHT22;10788;47.930;9.766;2024-01-15T09:51:43;-0.80;99.90
21261;DHT22;10788;47.930;9.766;2024-01-15T09:54:09;-0.90;99.90
21261;DHT22;10788;47.930;9.766;2024-01-15T09:56:35;-0.80;99.90
21261;DHT22;10788;47.930;9.766;2024-01-15T09:59:01;-0.80;99.90
21261;DHT22;10788;47.930;9.766;2024-01-15T10:01:31;-0.80;99.90
21261;DHT22;10788;47.930;9.766;2024-01-15T10:03:56;-0.80;99.90
21261;DHT22;10788;47.930;9.766;2024-01-15T10:06:23;-0.80;99.90
21261;DHT22;10788;47.930;9.766;2024-01-15T10:08:50;-0.90;99.90
21261;DHT22;10788;47.930;9.766;2024-01-15T10:11:16;-0.80;99.90
21261;DHT22;10788;47.930;9.766;2024-01-15T10:13:46;-0.50;99.90
21261;DHT22;10788;47.930;9.766;2024-01-15T10:16:12;-0.20;99.90
21261;DHT22;10788;47.930;9.766;2024-01-15T10:18:38;0.10;99.90
21261;DHT22;10788;47.930;9.766;2024-01-15T10:21:07;0.30;99.90
21261;DHT22;10788;47.930;9.766;2024-01-15T10:23:33;0.50;99.90
21261;DHT22;10788;47.930;9.766;2024-01-15T10:26:00;0.60;99.90
21261;DHT22;10788;47.930;9.766;2024-01-15T10:28:29;0.70;99.90
21261;DHT22;10788;47.930;9.766;2024-01-15T10:30:57;0.60;99.90
21261;DHT22;10788;47.930;9.766;2024-01-15T10:33:23;0.50;99.90
21261;DHT22;10788;47.930;9.766;2024-01-15T10:35:56;0.30;99.90
21261;DHT22;10788;47.930;9.766;2024-01-15T10:38:22;0.20;99.90
21261;DHT22;10788;47.930;9.766;2024-01-15T10:40:52;0.10;99.90
21261;DHT22;10788;47.930;9.766;2024-01-15T10:43:17;0.10;99.90
21261;DHT22;10788;47.930;9.766;2024-01-15T10:45:45;0.20;99.90
21261;DHT22;10788;47.930;9.766;2024-01-15T10:48:12;0.30;99.90
21261;DHT22;10788;47.930;9.766;2024-01-15T10:50:37;0.40;99.90
21261;DHT22;10788;47.930;9.766;2024-01-15T10:53:04;0.30;99.90
21261;DHT22;10788;47.930;9.766;2024-01-15T10:55:35;0.30;99.90
21261;DHT22;10788;47.930;9.766;2024-01-15T10:58:03;0.20;99.90
21261;DHT22;10788;47.930;9.766;2024-01-15T11:00:29;0.10;99.90
21261;DHT22;10788;47.930;9.766;2024-01-15T11:02:56;0.20;99.90
21261;DHT22;10788;47.930;9.766;2024-01-15T11:05:22;0.20;99.90
21261;DHT22;10788;47.930;9.766;2024-01-15T11:07:49;0.10;99.90
21261;DHT22;10788;47.930;9.766;2024-01-15T11:13:09;0.10;99.90
21261;DHT22;10788;47.930;9.766;2024-01-15T11:16:15;0.20;99.90
21261;DHT22;10788;47.930;9.766;2024-01-15T11:21:24;0.20;99.90
21261;DHT22;10788;47.930;9.766;2024-01-15T11:28:54;0.30;99.90
21261;DHT22;10788;47.930;9.766;2024-01-15T11:31:20;0.40;99.90
21261;DHT22;10788;47.930;9.766;2024-01-15T11:33:52;0.50;99.90
21261;DHT22;10788;47.930;9.766;2024-01-15T11:36:17;0.60;99.90
21261;DHT22;10788;47.930;9.766;2024-01-15T11:38:43;0.60;99.90
21261;DHT22;10788;47.930;9.766;2024-01-15T11:41:15;0.70;99.90
21261;DHT22;10788;47.930;9.766;2024-01-15T11:43:43;0.80;99.90
21261;DHT22;10788;47.930;9.766;2024-01-15T11:46:11;0.80;99.90
21261;DHT22;10788;47.930;9.766;2024-01-15T11:48:44;0.80;99.90
21261;DHT22;10788;47.930;9.766;2024-01-15T11:51:13;0.70;99.90
21261;DHT22;10788;47.930;9.766;2024-01-15T11:53:48;0.70;99.90
21261;DHT22;10788;47.930;9.766;2024-01-15T11:56:18;0.70;99.90
21261;DHT22;10788;47.930;9.766;2024-01-15T11:58:45;0.70;99.90
21261;DHT22;10788;47.930;9.766;2024-01-15T12:01:11;0.70;99.90
21261;DHT22;10788;47.930;9.766;2024-01-15T12:03:37;0.70;99.90
21261;DHT22;10788;47.930;9.766;2024-01-15T12:06:05;0.70;99.90
21261;DHT22;10788;47.930;9.766;2024-01-15T12:08:32;0.80;99.90
21261;DHT22;10788;47.930;9.766;2024-01-15T12:10:57;0.80;99.90
21261;DHT22;10788;47.930;9.766;2024-01-15T12:13:23;0.80;99.90
21261;DHT22;10788;47.930;9.766;2024-01-15T12:15:49;0.70;99.90
21261;DHT22;10788;47.930;9.766;2024-01-15T12:18:16;0.70;99.90
21261;DHT22;10788;47.930;9.766;2024-01-15T12:20:43;0.70;99.90
21261;DHT22;10788;47.930;9.766;2024-01-15T12:23:10;0.70;99.90
21261;DHT22;10788;47.930;9.766;2024-01-15T12:25:36;0.70;99.90
21261;DHT22;10788;47.930;9.766;2024-01-15T12:28:03;0.70;99.90
21261;DHT22;10788;47.930;9.766;2024-01-15T12:30:30;0.60;99.90
21261;DHT22;10788;47.930;9.766;2024-01-15T12:33:00;0.60;99.90
21261;DHT22;10788;47.930;9.766;2024-01-15T12:35:26;0.70;99.90
21261;DHT22;10788;47.930;9.766;2024-01-15T12:37:52;0.70;99.90
21261;DHT22;10788;47.930;9.766;2024-01-15T12:40:22;0.70;99.90
21261;DHT22;10788;47.930;9.766;2024-01-15T12:42:48;0.80;99.90
21261;DHT22;10788;47.930;9.766;2024-01-15T12:45:14;0.80;99.90
21261;DHT22;10788;47.930;9.766;2024-01-15T12:47:41;0.80;99.90
21261;DHT22;10788;47.930;9.766;2024-01-15T12:50:11;0.70;99.90
21261;DHT22;10788;47.930;9.766;2024-01-15T12:52:37;0.60;99.90
21261;DHT22;10788;47.930;9.766;2024-01-15T12:55:09;0.70;99.90
21261;DHT22;10788;47.930;9.766;2024-01-15T12:57:35;0.60;99.90
21261;DHT22;10788;47.930;9.766;2024-01-15T13:00:05;0.60;99.90
21261;DHT22;10788;47.930;9.766;2024-01-15T13:02:33;0.60;99.90
21261;DHT22;10788;47.930;9.766;2024-01-15T13:04:59;0.60;99.90
21261;DHT22;10788;47.930;9.766;2024-01-15T13:07:25;0.60;99.90
21261;DHT22;10788;47.930;9.766;2024-01-15T13:09:51;0.60;99.90
21261;DHT22;10788;47.930;9.766;2024-01-15T13:12:19;0.60;99.90
21261;DHT22;10788;47.930;9.766;2024-01-15T13:14:45;0.60;99.90
21261;DHT22;10788;47.930;9.766;2024-01-15T13:17:12;0.60;99.90
21261;DHT22;10788;47.930;9.766;2024-01-15T13:19:40;0.50;99.90
21261;DHT22;10788;47.930;9.766;2024-01-15T13:22:05;0.50;99.90
21261;DHT22;10788;47.930;9.766;2024-01-15T13:24:32;0.50;99.90
21261;DHT22;10788;47.930;9.766;2024-01-15T13:26:58;0.50;99.90
21261;DHT22;10788;47.930;9.766;2024-01-15T13:29:23;0.50;99.90
21261;DHT22;10788;47.930;9.766;2024-01-15T13:31:49;0.50;99.90
21261;DHT22;10788;47.930;9.766;2024-01-15T13:34:15;0.50;99.90
21261;DHT22;10788;47.930;9.766;2024-01-15T13:36:40;0.50;99.90
21261;DHT22;10788;47.930;9.766;2024-01-15T13:39:06;0.50;99.90
21261;DHT22;10788;47.930;9.766;2024-01-15T13:41:36;0.50;99.90
21261;DHT22;10788;47.930;9.766;2024-01-15T13:44:01;0.50;99.90
21261;DHT22;10788;47.930;9.766;2024-01-15T13:46:28;0.50;99.90
21261;DHT22;10788;47.930;9.766;2024-01-15T13:48:54;0.50;99.90
21261;DHT22;10788;47.930;9.766;2024-01-15T13:51:22;0.50;99.90
21261;DHT22;10788;47.930;9.766;2024-01-15T13:53:49;0.50;99.90
21261;DHT22;10788;47.930;9.766;2024-01-15T13:56:15;0.50;99.90
21261;DHT22;10788;47.930;9.766;2024-01-15T13:58:41;0.50;99.90
21261;DHT22;10788;47.930;9.766;2024-01-15T14:01:06;0.60;99.90
21261;DHT22;10788;47.930;9.766;2024-01-15T14:03:32;0.60;99.90
21261;DHT22;10788;47.930;9.766;2024-01-15T14:05:59;0.60;99.90
21261;DHT22;10788;47.930;9.766;2024-01-15T14:08:25;0.60;99.90
21261;DHT22;10788;47.930;9.766;2024-01-15T14:10:51;0.60;99.90
21261;DHT22;10788;47.930;9.766;2024-01-15T14:13:17;0.60;99.90
21261;DHT22;10788;47.930;9.766;2024-01-15T14:15:42;0.60;99.90
21261;DHT22;10788;47.930;9.766;2024-01-15T14:18:08;0.60;99.90
21261;DHT22;10788;47.930;9.766;2024-01-15T14:20:34;0.50;99.90
21261;DHT22;10788;47.930;9.766;2024-01-15T14:22:59;0.50;99.90
21261;DHT22;10788;47.930;9.766;2024-01-15T14:25:26;0.50;99.90
21261;DHT22;10788;47.930;9.766;2024-01-15T14:27:51;0.60;99.90
21261;DHT22;10788;47.930;9.766;2024-01-15T14:30:17;0.50;99.90
21261;DHT22;10788;47.930;9.766;2024-01-15T14:32:43;0.60;99.90
21261;DHT22;10788;47.930;9.766;2024-01-15T14:35:09;0.60;99.90
21261;DHT22;10788;47.930;9.766;2024-01-15T14:37:39;0.60;99.90
21261;DHT22;10788;47.930;9.766;2024-01-15T14:40:06;0.60;99.90
21261;DHT22;10788;47.930;9.766;2024-01-15T14:42:41;0.60;99.90
21261;DHT22;10788;47.930;9.766;2024-01-15T14:45:07;0.50;99.90
21261;DHT22;10788;47.930;9.766;2024-01-15T14:47:37;0.50;99.90
21261;DHT22;10788;47.930;9.766;2024-01-15T14:50:05;0.50;99.90
21261;DHT22;10788;47.930;9.766;2024-01-15T14:52:31;0.50;99.90
21261;DHT22;10788;47.930;9.766;2024-01-15T14:54:56;0.50;99.90
21261;DHT22;10788;47.930;9.766;2024-01-15T14:57:22;0.50;99.90
21261;DHT22;10788;47.930;9.766;2024-01-15T14:59:48;0.60;99.90
21261;DHT22;10788;47.930;9.766;2024-01-15T15:02:14;0.60;99.90
21261;DHT22;10788;47.930;9.766;2024-01-15T15:04:40;0.60;99.90
21261;DHT22;10788;47.930;9.766;2024-01-15T15:07:07;0.60;99.90
21261;DHT22;10788;47.930;9.766;2024-01-15T15:09:33;0.60;99.90
21261;DHT22;10788;47.930;9.766;2024-01-15T15:11:58;0.60;99.90
21261;DHT22;10788;47.930;9.766;2024-01-15T15:14:24;0.60;99.90
21261;DHT22;10788;47.930;9.766;2024-01-15T15:16:50;0.50;99.90
21261;DHT22;10788;47.930;9.766;2024-01-15T15:19:15;0.50;99.90
21261;DHT22;10788;47.930;9.766;2024-01-15T15:21:42;0.50;99.90
21261;DHT22;10788;47.930;9.766;2024-01-15T15:24:08;0.50;99.90
21261;DHT22;10788;47.930;9.766;2024-01-15T15:26:34;0.50;99.90
21261;DHT22;10788;47.930;9.766;2024-01-15T15:29:02;0.50;99.90
21261;DHT22;10788;47.930;9.766;2024-01-15T15:31:27;0.50;99.90
21261;DHT22;10788;47.930;9.766;2024-01-15T15:33:53;0.40;99.90
21261;DHT22;10788;47.930;9.766;2024-01-15T15:36:19;0.50;99.90
21261;DHT22;10788;47.930;9.766;2024-01-15T15:38:45;0.50;99.90
21261;DHT22;10788;47.930;9.766;2024-01-15T15:41:10;0.50;99.90